Terminal Aerodrome Forecast
Issued by NWS

Home | Current Version | Previous Version | Text Only | Print | Product List | Glossary On
Versions: 1 2 3 4 5 6 7 8 9 10 11 12 13 14 15 16 17 18 19
000
FTUS41 KGYX 241720
TAFRKD
TAF
KRKD 241720Z 2418/2518 16017G30KT 2SM -RA BR OVC004 WS020/19060KT
     FM250000 19014G22KT 3SM -DZ BR OVC008
     FM250600 21010KT P6SM BKN025
      AMD LTD TO VIS CLD AND WIND=

USA.gov is the U.S. government's official web portal to all federal, state and local government web resources and services.